sensor_id;sensor_type;location;lat;lon;timestamp;temperature;humidity
14119;DHT22;7138;49.246;9.100;2023-07-08T00:00:13;19.40;91.30
14119;DHT22;7138;49.246;9.100;2023-07-08T00:02:41;19.40;91.60
14119;DHT22;7138;49.246;9.100;2023-07-08T00:05:09;19.30;91.60
14119;DHT22;7138;49.246;9.100;2023-07-08T00:07:36;19.30;91.70
14119;DHT22;7138;49.246;9.100;2023-07-08T00:10:10;19.30;91.80
14119;DHT22;7138;49.246;9.100;2023-07-08T00:12:38;19.20;91.90
14119;DHT22;7138;49.246;9.100;2023-07-08T00:15:08;19.20;92.30
14119;DHT22;7138;49.246;9.100;2023-07-08T00:17:35;19.10;92.40
14119;DHT22;7138;49.246;9.100;2023-07-08T00:20:04;19.10;92.70
14119;DHT22;7138;49.246;9.100;2023-07-08T00:22:39;19.10;92.70
14119;DHT22;7138;49.246;9.100;2023-07-08T00:25:07;19.00;93.20
14119;DHT22;7138;49.246;9.100;2023-07-08T00:27:33;19.00;93.50
14119;DHT22;7138;49.246;9.100;2023-07-08T00:29:59;18.90;93.60
14119;DHT22;7138;49.246;9.100;2023-07-08T00:32:27;18.90;94.00
14119;DHT22;7138;49.246;9.100;2023-07-08T00:34:52;18.80;94.00
14119;DHT22;7138;49.246;9.100;2023-07-08T00:37:18;18.80;93.90
14119;DHT22;7138;49.246;9.100;2023-07-08T00:39:44;18.80;94.20
14119;DHT22;7138;49.246;9.100;2023-07-08T00:42:15;18.80;94.40
14119;DHT22;7138;49.246;9.100;2023-07-08T00:44:43;18.70;94.60
14119;DHT22;7138;49.246;9.100;2023-07-08T00:47:11;18.70;93.60
14119;DHT22;7138;49.246;9.100;2023-07-08T00:49:44;18.70;93.70
14119;DHT22;7138;49.246;9.100;2023-07-08T00:52:17;18.70;93.70
14119;DHT22;7138;49.246;9.100;2023-07-08T00:54:45;18.70;94.00
14119;DHT22;7138;49.246;9.100;2023-07-08T00:57:11;18.70;93.70
14119;DHT22;7138;49.246;9.100;2023-07-08T00:59:40;18.70;93.70
14119;DHT22;7138;49.246;9.100;2023-07-08T01:02:12;18.70;93.60
14119;DHT22;7138;49.246;9.100;2023-07-08T01:04:49;18.70;93.70
14119;DHT22;7138;49.246;9.100;2023-07-08T01:07:18;18.70;93.90
14119;DHT22;7138;49.246;9.100;2023-07-08T01:09:50;18.70;94.00
14119;DHT22;7138;49.246;9.100;2023-07-08T01:12:24;18.60;93.80
14119;DHT22;7138;49.246;9.100;2023-07-08T01:15:00;18.60;93.60
14119;DHT22;7138;49.246;9.100;2023-07-08T01:17:28;18.70;93.60
14119;DHT22;7138;49.246;9.100;2023-07-08T01:19:59;18.70;94.20
14119;DHT22;7138;49.246;9.100;2023-07-08T01:22:27;18.60;93.50
14119;DHT22;7138;49.246;9.100;2023-07-08T01:24:58;18.60;93.00
14119;DHT22;7138;49.246;9.100;2023-07-08T01:27:30;18.60;93.10
14119;DHT22;7138;49.246;9.100;2023-07-08T01:29:58;18.60;93.20
14119;DHT22;7138;49.246;9.100;2023-07-08T01:32:25;18.60;93.50
14119;DHT22;7138;49.246;9.100;2023-07-08T01:34:54;18.60;93.70
14119;DHT22;7138;49.246;9.100;2023-07-08T01:37:31;18.60;93.60
14119;DHT22;7138;49.246;9.100;2023-07-08T01:40:15;18.60;93.70
14119;DHT22;7138;49.246;9.100;2023-07-08T01:42:52;18.50;94.20
14119;DHT22;7138;49.246;9.100;2023-07-08T01:45:20;18.40;94.10
14119;DHT22;7138;49.246;9.100;2023-07-08T01:47:50;18.40;93.80
14119;DHT22;7138;49.246;9.100;2023-07-08T01:50:20;18.30;93.70
14119;DHT22;7138;49.246;9.100;2023-07-08T01:52:51;18.40;93.60
14119;DHT22;7138;49.246;9.100;2023-07-08T01:55:21;18.30;93.90
14119;DHT22;7138;49.246;9.100;2023-07-08T01:57:51;18.30;93.80
14119;DHT22;7138;49.246;9.100;2023-07-08T02:00:18;18.20;93.80
14119;DHT22;7138;49.246;9.100;2023-07-08T02:02:44;18.30;94.70
14119;DHT22;7138;49.246;9.100;2023-07-08T02:05:10;18.30;94.30
14119;DHT22;7138;49.246;9.100;2023-07-08T02:07:36;18.20;94.20
14119;DHT22;7138;49.246;9.100;2023-07-08T02:10:04;18.10;95.00
14119;DHT22;7138;49.246;9.100;2023-07-08T02:12:30;18.10;94.40
14119;DHT22;7138;49.246;9.100;2023-07-08T02:14:59;18.10;94.70
14119;DHT22;7138;49.246;9.100;2023-07-08T02:17:25;18.00;94.90
14119;DHT22;7138;49.246;9.100;2023-07-08T02:19:51;17.90;95.70
14119;DHT22;7138;49.246;9.100;2023-07-08T02:22:16;17.80;96.30
14119;DHT22;7138;49.246;9.100;2023-07-08T02:24:42;17.60;97.90
14119;DHT22;7138;49.246;9.100;2023-07-08T02:27:09;17.50;99.60
14119;DHT22;7138;49.246;9.100;2023-07-08T02:29:35;17.40;99.90
14119;DHT22;7138;49.246;9.100;2023-07-08T02:32:03;17.30;99.90
14119;DHT22;7138;49.246;9.100;2023-07-08T02:34:30;17.20;99.90
14119;DHT22;7138;49.246;9.100;2023-07-08T02:36:55;17.10;99.90
14119;DHT22;7138;49.246;9.100;2023-07-08T02:39:21;17.10;99.90
14119;DHT22;7138;49.246;9.100;2023-07-08T02:41:48;17.20;99.90
14119;DHT22;7138;49.246;9.100;2023-07-08T02:44:15;17.30;99.90
14119;DHT22;7138;49.246;9.100;2023-07-08T02:46:41;17.30;99.90
14119;DHT22;7138;49.246;9.100;2023-07-08T02:49:06;17.40;99.90
14119;DHT22;7138;49.246;9.100;2023-07-08T02:51:32;17.40;99.90
14119;DHT22;7138;49.246;9.100;2023-07-08T02:53:58;17.30;99.80
14119;DHT22;7138;49.246;9.100;2023-07-08T02:56:24;17.40;99.20
14119;DHT22;7138;49.246;9.100;2023-07-08T02:58:52;17.40;99.60
14119;DHT22;7138;49.246;9.100;2023-07-08T03:01:19;17.30;99.30
14119;DHT22;7138;49.246;9.100;2023-07-08T03:03:45;17.30;99.60
14119;DHT22;7138;49.246;9.100;2023-07-08T03:06:11;17.20;99.90
14119;DHT22;7138;49.246;9.100;2023-07-08T03:08:37;17.20;99.90
14119;DHT22;7138;49.246;9.100;2023-07-08T03:11:04;17.20;99.80
14119;DHT22;7138;49.246;9.100;2023-07-08T03:13:33;17.30;99.10
14119;DHT22;7138;49.246;9.100;2023-07-08T03:16:00;17.30;99.10
14119;DHT22;7138;49.246;9.100;2023-07-08T03:18:39;17.20;99.80
14119;DHT22;7138;49.246;9.100;2023-07-08T03:21:12;17.10;99.90
14119;DHT22;7138;49.246;9.100;2023-07-08T03:23:38;17.00;99.90
14119;DHT22;7138;49.246;9.100;2023-07-08T03:26:04;16.90;99.90
14119;DHT22;7138;49.246;9.100;2023-07-08T03:28:30;16.80;99.90
14119;DHT22;7138;49.246;9.100;2023-07-08T03:30:56;16.70;99.90
14119;DHT22;7138;49.246;9.100;2023-07-08T03:33:22;16.60;99.90
14119;DHT22;7138;49.246;9.100;2023-07-08T03:35:50;16.50;99.90
14119;DHT22;7138;49.246;9.100;2023-07-08T03:38:16;16.40;99.90
14119;DHT22;7138;49.246;9.100;2023-07-08T03:40:42;16.40;99.90
14119;DHT22;7138;49.246;9.100;2023-07-08T03:43:08;16.40;99.90
14119;DHT22;7138;49.246;9.100;2023-07-08T03:45:34;16.40;99.90
14119;DHT22;7138;49.246;9.100;2023-07-08T03:47:59;16.40;99.90
14119;DHT22;7138;49.246;9.100;2023-07-08T03:50:26;16.40;99.90
14119;DHT22;7138;49.246;9.100;2023-07-08T03:52:54;16.50;99.90
14119;DHT22;7138;49.246;9.100;2023-07-08T03:55:21;16.60;99.90
14119;DHT22;7138;49.246;9.100;2023-07-08T03:57:48;16.60;99.90
14119;DHT22;7138;49.246;9.100;2023-07-08T04:00:15;16.50;99.90
14119;DHT22;7138;49.246;9.100;2023-07-08T04:02:42;16.50;99.90
14119;DHT22;7138;49.246;9.100;2023-07-08T04:05:12;16.50;99.90
14119;DHT22;7138;49.246;9.100;2023-07-08T04:07:39;16.60;99.90
14119;DHT22;7138;49.246;9.100;2023-07-08T04:10:07;16.70;99.90
14119;DHT22;7138;49.246;9.100;2023-07-08T04:12:34;16.70;99.90
14119;DHT22;7138;49.246;9.100;2023-07-08T04:15:00;16.80;99.90
14119;DHT22;7138;49.246;9.100;2023-07-08T04:17:26;16.80;99.90
14119;DHT22;7138;49.246;9.100;2023-07-08T04:19:52;16.90;99.90
14119;DHT22;7138;49.246;9.100;2023-07-08T04:22:17;16.90;99.90
14119;DHT22;7138;49.246;9.100;2023-07-08T04:24:43;16.90;99.90
14119;DHT22;7138;49.246;9.100;2023-07-08T04:27:13;17.00;99.90
14119;DHT22;7138;49.246;9.100;2023-07-08T04:29:41;17.00;99.90
14119;DHT22;7138;49.246;9.100;2023-07-08T04:32:07;17.00;99.90
14119;DHT22;7138;49.246;9.100;2023-07-08T04:34:33;17.00;99.90
14119;DHT22;7138;49.246;9.100;2023-07-08T04:36:59;16.90;99.90
14119;DHT22;7138;49.246;9.100;2023-07-08T04:39:25;16.90;99.90
14119;DHT22;7138;49.246;9.100;2023-07-08T04:41:51;16.90;99.90
14119;DHT22;7138;49.246;9.100;2023-07-08T04:44:18;17.00;99.90
14119;DHT22;7138;49.246;9.100;2023-07-08T04:46:46;17.20;99.90
14119;DHT22;7138;49.246;9.100;2023-07-08T04:49:16;17.40;99.90
14119;DHT22;7138;49.246;9.100;2023-07-08T04:51:43;17.40;99.90
14119;DHT22;7138;49.246;9.100;2023-07-08T04:54:09;17.50;99.90
14119;DHT22;7138;49.246;9.100;2023-07-08T04:56:38;17.50;99.90
14119;DHT22;7138;49.246;9.100;2023-07-08T04:59:05;17.70;99.90
14119;DHT22;7138;49.246;9.100;2023-07-08T05:01:33;18.00;99.90
14119;DHT22;7138;49.246;9.100;2023-07-08T05:03:59;18.10;99.90
14119;DHT22;7138;49.246;9.100;2023-07-08T05:06:25;18.10;99.90
14119;DHT22;7138;49.246;9.100;2023-07-08T05:08:51;18.30;99.90
14119;DHT22;7138;49.246;9.100;2023-07-08T05:11:17;18.40;99.90
14119;DHT22;7138;49.246;9.100;2023-07-08T05:13:43;18.90;99.90
14119;DHT22;7138;49.246;9.100;2023-07-08T05:16:09;20.10;99.90
14119;DHT22;7138;49.246;9.100;2023-07-08T05:18:36;20.80;99.90
14119;DHT22;7138;49.246;9.100;2023-07-08T05:21:02;21.30;99.90
14119;DHT22;7138;49.246;9.100;2023-07-08T05:23:28;22.10;99.90
14119;DHT22;7138;49.246;9.100;2023-07-08T05:25:54;23.00;99.90
14119;DHT22;7138;49.246;9.100;2023-07-08T05:28:20;23.50;99.90
14119;DHT22;7138;49.246;9.100;2023-07-08T05:30:52;23.80;99.90
14119;DHT22;7138;49.246;9.100;2023-07-08T05:33:19;24.00;99.90
14119;DHT22;7138;49.246;9.100;2023-07-08T05:35:47;24.60;99.90
14119;DHT22;7138;49.246;9.100;2023-07-08T05:38:13;25.00;99.90
14119;DHT22;7138;49.246;9.100;2023-07-08T05:40:39;25.70;99.60
14119;DHT22;7138;49.246;9.100;2023-07-08T05:43:04;25.60;98.40
14119;DHT22;7138;49.246;9.100;2023-07-08T05:45:30;26.00;95.20
14119;DHT22;7138;49.246;9.100;2023-07-08T05:47:56;25.40;95.20
14119;DHT22;7138;49.246;9.100;2023-07-08T05:50:22;24.20;95.60
14119;DHT22;7138;49.246;9.100;2023-07-08T05:52:49;24.40;97.80
14119;DHT22;7138;49.246;9.100;2023-07-08T05:55:15;25.00;95.20
14119;DHT22;7138;49.246;9.100;2023-07-08T05:57:41;25.80;94.10
14119;DHT22;7138;49.246;9.100;2023-07-08T06:00:10;26.00;93.70
14119;DHT22;7138;49.246;9.100;2023-07-08T06:02:36;26.20;93.90
14119;DHT22;7138;49.246;9.100;2023-07-08T06:05:02;27.00;91.80
14119;DHT22;7138;49.246;9.100;2023-07-08T06:07:29;27.40;90.80
14119;DHT22;7138;49.246;9.100;2023-07-08T06:09:56;28.00;92.30
14119;DHT22;7138;49.246;9.100;2023-07-08T06:12:22;28.30;91.00
14119;DHT22;7138;49.246;9.100;2023-07-08T06:14:48;28.50;86.50
14119;DHT22;7138;49.246;9.100;2023-07-08T06:17:14;29.10;90.50
14119;DHT22;7138;49.246;9.100;2023-07-08T06:19:40;28.90;87.00
14119;DHT22;7138;49.246;9.100;2023-07-08T06:22:05;27.80;88.10
14119;DHT22;7138;49.246;9.100;2023-07-08T06:24:31;26.70;88.60
14119;DHT22;7138;49.246;9.100;2023-07-08T06:26:58;25.10;91.60
14119;DHT22;7138;49.246;9.100;2023-07-08T06:29:25;24.60;93.90
14119;DHT22;7138;49.246;9.100;2023-07-08T06:31:51;24.10;94.70
14119;DHT22;7138;49.246;9.100;2023-07-08T06:34:18;23.90;93.90
14119;DHT22;7138;49.246;9.100;2023-07-08T06:36:44;23.50;94.80
14119;DHT22;7138;49.246;9.100;2023-07-08T06:39:10;23.00;95.50
14119;DHT22;7138;49.246;9.100;2023-07-08T06:41:36;22.80;96.20
14119;DHT22;7138;49.246;9.100;2023-07-08T06:44:04;22.50;95.70
14119;DHT22;7138;49.246;9.100;2023-07-08T06:46:30;22.70;97.00
14119;DHT22;7138;49.246;9.100;2023-07-08T06:48:56;22.90;97.70
14119;DHT22;7138;49.246;9.100;2023-07-08T06:51:22;23.80;99.20
14119;DHT22;7138;49.246;9.100;2023-07-08T06:53:47;23.80;97.90
14119;DHT22;7138;49.246;9.100;2023-07-08T06:56:13;24.10;99.50
14119;DHT22;7138;49.246;9.100;2023-07-08T06:58:39;25.30;96.60
14119;DHT22;7138;49.246;9.100;2023-07-08T07:01:06;26.00;96.00
14119;DHT22;7138;49.246;9.100;2023-07-08T07:03:32;26.30;96.40
14119;DHT22;7138;49.246;9.100;2023-07-08T07:05:58;26.90;95.50
14119;DHT22;7138;49.246;9.100;2023-07-08T07:08:24;27.00;95.30
14119;DHT22;7138;49.246;9.100;2023-07-08T07:10:49;27.30;93.60
14119;DHT22;7138;49.246;9.100;2023-07-08T07:13:15;27.40;94.10
14119;DHT22;7138;49.246;9.100;2023-07-08T07:15:41;27.50;95.20
14119;DHT22;7138;49.246;9.100;2023-07-08T07:18:08;27.50;96.80
14119;DHT22;7138;49.246;9.100;2023-07-08T07:20:37;27.70;94.20
14119;DHT22;7138;49.246;9.100;2023-07-08T07:23:03;28.00;94.10
14119;DHT22;7138;49.246;9.100;2023-07-08T07:25:29;27.70;91.80
14119;DHT22;7138;49.246;9.100;2023-07-08T07:27:55;27.50;95.00
14119;DHT22;7138;49.246;9.100;2023-07-08T07:30:21;28.20;91.10
14119;DHT22;7138;49.246;9.100;2023-07-08T07:32:47;27.90;92.10
14119;DHT22;7138;49.246;9.100;2023-07-08T07:35:14;28.10;93.80
14119;DHT22;7138;49.246;9.100;2023-07-08T07:37:41;28.10;92.50
14119;DHT22;7138;49.246;9.100;2023-07-08T07:40:11;28.40;91.20
14119;DHT22;7138;49.246;9.100;2023-07-08T07:42:41;28.20;93.70
14119;DHT22;7138;49.246;9.100;2023-07-08T07:45:09;28.60;94.70
14119;DHT22;7138;49.246;9.100;2023-07-08T07:47:36;28.80;93.70
14119;DHT22;7138;49.246;9.100;2023-07-08T07:50:02;29.30;91.70
14119;DHT22;7138;49.246;9.100;2023-07-08T07:52:30;29.20;92.60
14119;DHT22;7138;49.246;9.100;2023-07-08T07:55:01;28.90;91.40
14119;DHT22;7138;49.246;9.100;2023-07-08T07:57:26;28.70;92.80
14119;DHT22;7138;49.246;9.100;2023-07-08T07:59:52;28.70;92.10
14119;DHT22;7138;49.246;9.100;2023-07-08T08:02:19;28.70;93.20
14119;DHT22;7138;49.246;9.100;2023-07-08T08:04:45;28.70;94.30
14119;DHT22;7138;49.246;9.100;2023-07-08T08:07:10;29.00;92.90
14119;DHT22;7138;49.246;9.100;2023-07-08T08:09:38;29.50;94.70
14119;DHT22;7138;49.246;9.100;2023-07-08T08:12:04;29.40;92.30
14119;DHT22;7138;49.246;9.100;2023-07-08T08:14:33;29.30;94.20
14119;DHT22;7138;49.246;9.100;2023-07-08T08:16:58;29.60;93.10
14119;DHT22;7138;49.246;9.100;2023-07-08T08:19:24;29.50;92.90
14119;DHT22;7138;49.246;9.100;2023-07-08T08:21:50;29.40;93.10
14119;DHT22;7138;49.246;9.100;2023-07-08T08:24:16;29.60;93.60
14119;DHT22;7138;49.246;9.100;2023-07-08T08:26:43;29.80;94.10
14119;DHT22;7138;49.246;9.100;2023-07-08T08:29:09;29.50;92.30
14119;DHT22;7138;49.246;9.100;2023-07-08T08:31:35;29.60;92.90
14119;DHT22;7138;49.246;9.100;2023-07-08T08:34:00;30.20;94.80
14119;DHT22;7138;49.246;9.100;2023-07-08T08:36:26;30.30;93.70
14119;DHT22;7138;49.246;9.100;2023-07-08T08:38:52;29.90;92.40
14119;DHT22;7138;49.246;9.100;2023-07-08T08:41:31;29.70;93.70
14119;DHT22;7138;49.246;9.100;2023-07-08T08:44:01;29.10;93.60
14119;DHT22;7138;49.246;9.100;2023-07-08T08:46:38;28.90;93.60
14119;DHT22;7138;49.246;9.100;2023-07-08T08:49:15;29.20;95.70
14119;DHT22;7138;49.246;9.100;2023-07-08T08:51:49;28.90;95.00
14119;DHT22;7138;49.246;9.100;2023-07-08T08:54:16;28.70;93.70
14119;DHT22;7138;49.246;9.100;2023-07-08T08:56:49;28.90;94.30
14119;DHT22;7138;49.246;9.100;2023-07-08T08:59:32;29.10;94.80
14119;DHT22;7138;49.246;9.100;2023-07-08T09:02:19;29.00;95.60
14119;DHT22;7138;49.246;9.100;2023-07-08T09:04:54;29.40;93.70
14119;DHT22;7138;49.246;9.100;2023-07-08T09:07:24;30.00;93.20
14119;DHT22;7138;49.246;9.100;2023-07-08T09:09:58;30.60;92.90
14119;DHT22;7138;49.246;9.100;2023-07-08T09:12:29;30.60;92.40
14119;DHT22;7138;49.246;9.100;2023-07-08T09:14:59;30.50;92.00
14119;DHT22;7138;49.246;9.100;2023-07-08T09:17:34;30.50;91.20
14119;DHT22;7138;49.246;9.100;2023-07-08T09:20:06;30.70;91.50
14119;DHT22;7138;49.246;9.100;2023-07-08T09:22:46;30.60;91.70
14119;DHT22;7138;49.246;9.100;2023-07-08T09:25:24;30.80;91.40
14119;DHT22;7138;49.246;9.100;2023-07-08T09:27:51;31.00;90.10
14119;DHT22;7138;49.246;9.100;2023-07-08T09:30:21;30.40;90.90
14119;DHT22;7138;49.246;9.100;2023-07-08T09:32:49;30.80;90.60
14119;DHT22;7138;49.246;9.100;2023-07-08T09:35:18;31.10;90.50
14119;DHT22;7138;49.246;9.100;2023-07-08T09:37:46;30.70;91.40
14119;DHT22;7138;49.246;9.100;2023-07-08T09:40:16;30.40;90.40
14119;DHT22;7138;49.246;9.100;2023-07-08T09:42:46;30.50;90.50
14119;DHT22;7138;49.246;9.100;2023-07-08T09:45:19;30.30;90.00
14119;DHT22;7138;49.246;9.100;2023-07-08T09:47:53;30.60;93.40
14119;DHT22;7138;49.246;9.100;2023-07-08T09:50:22;30.50;90.40
14119;DHT22;7138;49.246;9.100;2023-07-08T09:52:51;31.00;90.60
14119;DHT22;7138;49.246;9.100;2023-07-08T09:55:20;31.50;89.90
14119;DHT22;7138;49.246;9.100;2023-07-08T09:57:48;31.60;89.70
14119;DHT22;7138;49.246;9.100;2023-07-08T10:00:19;31.40;89.60
14119;DHT22;7138;49.246;9.100;2023-07-08T10:02:55;31.10;85.50
14119;DHT22;7138;49.246;9.100;2023-07-08T10:05:26;30.70;89.30
14119;DHT22;7138;49.246;9.100;2023-07-08T10:07:58;30.70;89.40
14119;DHT22;7138;49.246;9.100;2023-07-08T10:10:31;30.40;90.60
14119;DHT22;7138;49.246;9.100;2023-07-08T10:13:02;30.30;90.20
14119;DHT22;7138;49.246;9.100;2023-07-08T10:15:37;30.50;91.40
14119;DHT22;7138;49.246;9.100;2023-07-08T10:18:12;31.30;90.30
14119;DHT22;7138;49.246;9.100;2023-07-08T10:20:49;31.30;88.40
14119;DHT22;7138;49.246;9.100;2023-07-08T10:23:27;30.70;88.70
14119;DHT22;7138;49.246;9.100;2023-07-08T10:26:10;31.10;90.10
14119;DHT22;7138;49.246;9.100;2023-07-08T10:29:06;31.80;90.00
14119;DHT22;7138;49.246;9.100;2023-07-08T10:31:51;31.80;87.60
14119;DHT22;7138;49.246;9.100;2023-07-08T10:34:32;31.30;88.40
14119;DHT22;7138;49.246;9.100;2023-07-08T10:37:10;30.90;88.70
14119;DHT22;7138;49.246;9.100;2023-07-08T10:39:55;31.50;90.50
14119;DHT22;7138;49.246;9.100;2023-07-08T10:42:53;31.10;87.90
14119;DHT22;7138;49.246;9.100;2023-07-08T10:45:34;31.60;90.90
14119;DHT22;7138;49.246;9.100;2023-07-08T10:48:21;32.10;87.50
14119;DHT22;7138;49.246;9.100;2023-07-08T10:51:08;31.70;87.00
14119;DHT22;7138;49.246;9.100;2023-07-08T10:53:51;31.60;87.20
14119;DHT22;7138;49.246;9.100;2023-07-08T10:56:31;31.80;84.40
14119;DHT22;7138;49.246;9.100;2023-07-08T11:02:22;31.80;90.20
14119;DHT22;7138;49.246;9.100;2023-07-08T11:05:23;32.30;86.60
14119;DHT22;7138;49.246;9.100;2023-07-08T11:07:59;32.20;86.50
14119;DHT22;7138;49.246;9.100;2023-07-08T11:10:34;31.60;86.10
14119;DHT22;7138;49.246;9.100;2023-07-08T11:13:10;32.00;87.10
14119;DHT22;7138;49.246;9.100;2023-07-08T11:15:43;32.30;83.90
14119;DHT22;7138;49.246;9.100;2023-07-08T11:18:16;32.40;86.30
14119;DHT22;7138;49.246;9.100;2023-07-08T11:20:56;31.90;85.50
14119;DHT22;7138;49.246;9.100;2023-07-08T11:23:30;32.20;86.70
14119;DHT22;7138;49.246;9.100;2023-07-08T11:26:10;31.80;87.40
14119;DHT22;7138;49.246;9.100;2023-07-08T11:28:41;31.60;83.70
14119;DHT22;7138;49.246;9.100;2023-07-08T11:31:08;32.00;90.00
14119;DHT22;7138;49.246;9.100;2023-07-08T11:33:35;32.40;90.60
14119;DHT22;7138;49.246;9.100;2023-07-08T11:36:05;32.80;87.10
14119;DHT22;7138;49.246;9.100;2023-07-08T11:38:33;32.30;84.50
14119;DHT22;7138;49.246;9.100;2023-07-08T11:41:15;32.20;86.30
14119;DHT22;7138;49.246;9.100;2023-07-08T11:43:46;32.20;87.70
14119;DHT22;7138;49.246;9.100;2023-07-08T11:46:15;32.40;85.90
14119;DHT22;7138;49.246;9.100;2023-07-08T11:48:48;32.50;89.20
14119;DHT22;7138;49.246;9.100;2023-07-08T11:51:22;32.40;85.20
14119;DHT22;7138;49.246;9.100;2023-07-08T11:53:59;32.40;88.30
14119;DHT22;7138;49.246;9.100;2023-07-08T11:56:27;32.70;84.50
14119;DHT22;7138;49.246;9.100;2023-07-08T11:59:11;32.90;84.70
14119;DHT22;7138;49.246;9.100;2023-07-08T12:01:47;33.00;80.50
14119;DHT22;7138;49.246;9.100;2023-07-08T12:04:28;32.50;83.20
14119;DHT22;7138;49.246;9.100;2023-07-08T12:07:09;32.70;84.20
14119;DHT22;7138;49.246;9.100;2023-07-08T12:09:45;31.90;84.70
14119;DHT22;7138;49.246;9.100;2023-07-08T12:12:25;32.20;86.20
14119;DHT22;7138;49.246;9.100;2023-07-08T12:15:05;32.40;83.80
14119;DHT22;7138;49.246;9.100;2023-07-08T12:17:38;32.60;84.00
14119;DHT22;7138;49.246;9.100;2023-07-08T12:20:11;32.70;88.60
14119;DHT22;7138;49.246;9.100;2023-07-08T12:22:44;33.10;84.30
14119;DHT22;7138;49.246;9.100;2023-07-08T12:25:13;32.90;83.70
14119;DHT22;7138;49.246;9.100;2023-07-08T12:27:41;33.00;81.80
14119;DHT22;7138;49.246;9.100;2023-07-08T12:30:09;32.60;87.20
14119;DHT22;7138;49.246;9.100;2023-07-08T12:32:37;32.80;84.00
14119;DHT22;7138;49.246;9.100;2023-07-08T12:35:03;32.60;83.50
14119;DHT22;7138;49.246;9.100;2023-07-08T12:37:31;32.60;84.50
14119;DHT22;7138;49.246;9.100;2023-07-08T12:40:03;33.10;84.40
14119;DHT22;7138;49.246;9.100;2023-07-08T12:42:35;33.30;82.10
14119;DHT22;7138;49.246;9.100;2023-07-08T12:45:01;33.10;84.20
14119;DHT22;7138;49.246;9.100;2023-07-08T12:47:27;32.90;85.50
14119;DHT22;7138;49.246;9.100;2023-07-08T12:49:53;33.30;80.20
14119;DHT22;7138;49.246;9.100;2023-07-08T12:52:20;33.60;82.20
14119;DHT22;7138;49.246;9.100;2023-07-08T12:54:47;33.50;78.90
14119;DHT22;7138;49.246;9.100;2023-07-08T12:57:16;32.60;81.60
14119;DHT22;7138;49.246;9.100;2023-07-08T12:59:44;32.80;80.60
14119;DHT22;7138;49.246;9.100;2023-07-08T13:02:15;33.20;82.60
14119;DHT22;7138;49.246;9.100;2023-07-08T13:04:45;32.90;77.30
14119;DHT22;7138;49.246;9.100;2023-07-08T13:07:22;32.90;81.90
14119;DHT22;7138;49.246;9.100;2023-07-08T13:09:55;32.90;81.60
14119;DHT22;7138;49.246;9.100;2023-07-08T13:12:22;33.50;82.70
14119;DHT22;7138;49.246;9.100;2023-07-08T13:14:51;33.50;75.70
14119;DHT22;7138;49.246;9.100;2023-07-08T13:17:20;33.40;76.40
14119;DHT22;7138;49.246;9.100;2023-07-08T13:19:46;33.30;77.40
14119;DHT22;7138;49.246;9.100;2023-07-08T13:22:17;33.40;75.40
14119;DHT22;7138;49.246;9.100;2023-07-08T13:24:45;33.50;76.70
14119;DHT22;7138;49.246;9.100;2023-07-08T13:27:20;33.50;79.20
14119;DHT22;7138;49.246;9.100;2023-07-08T13:29:51;33.50;74.90
14119;DHT22;7138;49.246;9.100;2023-07-08T13:32:18;33.30;77.90
14119;DHT22;7138;49.246;9.100;2023-07-08T13:34:43;33.10;78.00
14119;DHT22;7138;49.246;9.100;2023-07-08T13:37:11;33.10;76.90
14119;DHT22;7138;49.246;9.100;2023-07-08T13:39:44;33.30;76.40
14119;DHT22;7138;49.246;9.100;2023-07-08T13:42:11;33.30;75.50
14119;DHT22;7138;49.246;9.100;2023-07-08T13:44:43;33.30;76.40
14119;DHT22;7138;49.246;9.100;2023-07-08T13:47:21;33.30;74.50
14119;DHT22;7138;49.246;9.100;2023-07-08T13:49:54;33.20;76.40
14119;DHT22;7138;49.246;9.100;2023-07-08T13:52:24;33.10;76.00
14119;DHT22;7138;49.246;9.100;2023-07-08T13:54:52;33.30;73.40
14119;DHT22;7138;49.246;9.100;2023-07-08T13:57:22;33.00;74.30
14119;DHT22;7138;49.246;9.100;2023-07-08T13:59:54;33.10;73.60
14119;DHT22;7138;49.246;9.100;2023-07-08T14:02:23;33.10;76.60
14119;DHT22;7138;49.246;9.100;2023-07-08T14:04:52;33.20;75.90
14119;DHT22;7138;49.246;9.100;2023-07-08T14:07:21;33.50;77.40
14119;DHT22;7138;49.246;9.100;2023-07-08T14:09:48;33.80;77.00
14119;DHT22;7138;49.246;9.100;2023-07-08T14:12:14;33.70;73.50
14119;DHT22;7138;49.246;9.100;2023-07-08T14:14:40;33.50;74.30
14119;DHT22;7138;49.246;9.100;2023-07-08T14:17:10;33.30;73.20
14119;DHT22;7138;49.246;9.100;2023-07-08T14:19:46;33.30;76.50
14119;DHT22;7138;49.246;9.100;2023-07-08T14:22:22;33.20;79.00
14119;DHT22;7138;49.246;9.100;2023-07-08T14:24:49;33.60;76.20
14119;DHT22;7138;49.246;9.100;2023-07-08T14:27:15;33.60;74.40
14119;DHT22;7138;49.246;9.100;2023-07-08T14:29:45;33.30;76.30
14119;DHT22;7138;49.246;9.100;2023-07-08T14:32:16;33.20;73.40
14119;DHT22;7138;49.246;9.100;2023-07-08T14:34:49;33.60;73.70
14119;DHT22;7138;49.246;9.100;2023-07-08T14:37:16;33.60;74.70
14119;DHT22;7138;49.246;9.100;2023-07-08T14:39:43;32.80;70.70
14119;DHT22;7138;49.246;9.100;2023-07-08T14:42:11;32.50;73.40
14119;DHT22;7138;49.246;9.100;2023-07-08T14:44:41;32.90;75.70
14119;DHT22;7138;49.246;9.100;2023-07-08T14:47:10;33.00;73.60
14119;DHT22;7138;49.246;9.100;2023-07-08T14:49:38;33.20;74.60
14119;DHT22;7138;49.246;9.100;2023-07-08T14:52:04;32.60;74.10
14119;DHT22;7138;49.246;9.100;2023-07-08T14:54:31;33.00;76.60
14119;DHT22;7138;49.246;9.100;2023-07-08T14:56:57;32.80;72.10
14119;DHT22;7138;49.246;9.100;2023-07-08T14:59:25;32.80;74.40
14119;DHT22;7138;49.246;9.100;2023-07-08T15:01:55;32.70;75.00
14119;DHT22;7138;49.246;9.100;2023-07-08T15:04:23;32.90;74.80
14119;DHT22;7138;49.246;9.100;2023-07-08T15:06:50;32.80;71.00
14119;DHT22;7138;49.246;9.100;2023-07-08T15:09:18;32.80;71.70
14119;DHT22;7138;49.246;9.100;2023-07-08T15:11:44;32.70;73.50
14119;DHT22;7138;49.246;9.100;2023-07-08T15:14:19;32.20;70.00
14119;DHT22;7138;49.246;9.100;2023-07-08T15:16:47;32.30;71.40
14119;DHT22;7138;49.246;9.100;2023-07-08T15:19:14;32.30;74.20
14119;DHT22;7138;49.246;9.100;2023-07-08T15:21:40;32.20;71.50
14119;DHT22;7138;49.246;9.100;2023-07-08T15:24:09;32.30;76.40
14119;DHT22;7138;49.246;9.100;2023-07-08T15:26:37;31.90;71.60
14119;DHT22;7138;49.246;9.100;2023-07-08T15:29:03;32.10;73.60
14119;DHT22;7138;49.246;9.100;2023-07-08T15:31:32;32.20;72.70
14119;DHT22;7138;49.246;9.100;2023-07-08T15:34:00;32.20;75.20
14119;DHT22;7138;49.246;9.100;2023-07-08T15:36:26;32.60;73.30
14119;DHT22;7138;49.246;9.100;2023-07-08T15:38:51;32.60;72.90
14119;DHT22;7138;49.246;9.100;2023-07-08T15:41:21;32.90;73.40
14119;DHT22;7138;49.246;9.100;2023-07-08T15:43:49;32.90;70.70
14119;DHT22;7138;49.246;9.100;2023-07-08T15:46:18;33.10;75.00
14119;DHT22;7138;49.246;9.100;2023-07-08T15:48:44;33.10;67.90
14119;DHT22;7138;49.246;9.100;2023-07-08T15:51:13;32.90;71.20
14119;DHT22;7138;49.246;9.100;2023-07-08T15:53:40;33.10;69.70
14119;DHT22;7138;49.246;9.100;2023-07-08T15:56:08;33.00;71.60
14119;DHT22;7138;49.246;9.100;2023-07-08T15:58:37;32.80;73.40
14119;DHT22;7138;49.246;9.100;2023-07-08T16:01:03;32.40;68.30